Time;durP1;ratioP1;P1;durP2;ratioP2;P2;SDS_P1;SDS_P2;PMS_P1;PMS_P2;Temp;Humidity;BMP_temperature;BMP_pressure;BME280_temperature;BME280_humidity;BME280_pressure;Samples;Min_cycle;Max_cycle;Signal;HPM_P1;HPM_P2
2022/02/17 00:01:38;;;;;;;0.43;0.40;;;10.70;99.90;;;;;;5166974;28;20417;-33
2022/02/17 00:04:11;;;;;;;0.40;0.40;;;10.70;99.90;;;;;;5168262;28;20413;-33
2022/02/17 00:06:44;;;;;;;0.85;0.40;;;10.80;99.90;;;;;;5151941;28;20401;-33
2022/02/17 00:09:16;;;;;;;0.38;0.32;;;10.80;99.90;;;;;;5169111;28;20049;-33
2022/02/17 00:11:49;;;;;;;0.30;0.20;;;10.80;99.90;;;;;;5148638;28;20037;-33
2022/02/17 00:14:22;;;;;;;0.30;0.30;;;10.80;99.90;;;;;;5146019;28;20048;-33
2022/02/17 00:16:55;;;;;;;0.60;0.60;;;10.80;99.90;;;;;;5166013;28;20390;-33
2022/02/17 00:19:27;;;;;;;0.40;0.38;;;10.80;99.90;;;;;;5167945;28;20053;-32
2022/02/17 00:22:00;;;;;;;0.32;0.32;;;10.80;99.90;;;;;;5151149;28;20146;-34
2022/02/17 00:24:32;;;;;;;0.43;0.43;;;10.70;99.90;;;;;;5157678;28;20065;-33
2022/02/17 00:27:05;;;;;;;0.30;0.30;;;10.70;99.90;;;;;;5172406;28;20296;-34
2022/02/17 00:29:38;;;;;;;0.30;0.30;;;11.30;99.90;;;;;;5176080;28;20409;-33
2022/02/17 00:32:12;;;;;;;0.30;0.30;;;10.70;99.90;;;;;;5152701;28;20497;-33
2022/02/17 00:34:44;;;;;;;0.40;0.30;;;10.70;99.90;;;;;;5163321;28;20049;-33
2022/02/17 00:37:17;;;;;;;1.15;0.50;;;10.70;99.90;;;;;;5163251;28;20891;-37
2022/02/17 00:39:49;;;;;;;0.20;0.20;;;10.70;99.90;;;;;;5164206;28;20056;-33
2022/02/17 00:42:23;;;;;;;0.30;0.30;;;10.70;99.90;;;;;;5151245;28;20413;-33
2022/02/17 00:44:55;;;;;;;0.63;0.40;;;10.70;99.90;;;;;;5153433;28;20069;-33
2022/02/17 00:47:28;;;;;;;2.10;0.43;;;10.70;99.90;;;;;;5174115;28;20926;-32
2022/02/17 00:50:00;;;;;;;0.73;0.40;;;10.70;99.90;;;;;;5166316;28;20390;-42
2022/02/17 00:52:38;;;;;;;0.30;0.30;;;10.70;99.90;;;;;;5156196;28;20556;-33
2022/02/17 00:55:11;;;;;;;0.35;0.35;;;10.70;99.90;;;;;;5169478;28;20049;-33
2022/02/17 00:57:43;;;;;;;0.30;0.30;;;10.70;99.90;;;;;;5168539;28;20943;-33
2022/02/17 01:00:17;;;;;;;0.73;0.20;;;10.80;99.90;;;;;;5154387;28;20058;-33
2022/02/17 01:02:50;;;;;;;0.50;0.38;;;10.70;99.90;;;;;;5157745;28;20046;-33
2022/02/17 01:05:22;;;;;;;0.30;0.30;;;10.80;99.90;;;;;;5149111;28;20049;-32
2022/02/17 01:07:56;;;;;;;0.35;0.35;;;10.80;99.90;;;;;;5168485;28;20072;-33
2022/02/17 01:10:29;;;;;;;0.30;0.30;;;10.90;99.90;;;;;;5174530;28;21069;-33
2022/02/17 01:13:03;;;;;;;0.70;0.40;;;10.90;99.90;;;;;;5172928;28;20052;-33
2022/02/17 01:15:36;;;;;;;0.40;0.30;;;10.90;99.90;;;;;;5148061;28;20414;-33
2022/02/17 01:18:08;;;;;;;0.30;0.30;;;10.90;99.90;;;;;;5162920;28;20053;-33
2022/02/17 01:20:46;;;;;;;1.75;0.40;;;10.90;99.90;;;;;;5141495;28;20057;-33
2022/02/17 01:23:19;;;;;;;0.30;0.30;;;10.90;99.90;;;;;;5171226;28;20049;-33
2022/02/17 01:25:51;;;;;;;0.47;0.38;;;10.90;99.90;;;;;;5173263;28;20092;-33
2022/02/17 01:28:24;;;;;;;0.40;0.40;;;10.90;99.90;;;;;;5157534;28;20045;-32
2022/02/17 01:30:58;;;;;;;0.57;0.40;;;10.90;99.90;;;;;;5152379;28;20076;-33
2022/02/17 01:33:30;;;;;;;0.40;0.30;;;10.90;99.90;;;;;;5170899;28;20064;-33
2022/02/17 01:36:15;;;;;;;0.32;0.28;;;10.90;99.90;;;;;;5151045;28;20057;-33
2022/02/17 01:38:47;;;;;;;1.00;0.20;;;10.90;99.90;;;;;;5147018;28;20058;-33
2022/02/17 01:41:21;;;;;;;0.30;0.30;;;10.90;99.90;;;;;;5156053;28;20055;-33
2022/02/17 01:43:54;;;;;;;0.40;0.40;;;11.00;99.90;;;;;;5147621;28;20330;-32
2022/02/17 01:46:38;;;;;;;2.25;0.30;;;11.00;99.90;;;;;;5160191;28;20045;-33
2022/02/17 01:49:11;;;;;;;;;;;11.00;99.90;;;;;;5154681;28;20049;-33
2022/02/17 01:51:44;;;;;;;0.30;0.30;;;11.00;99.90;;;;;;5155617;28;20361;-33
2022/02/17 01:54:18;;;;;;;0.20;0.20;;;11.00;99.90;;;;;;5160503;28;20034;-33
2022/02/17 01:56:51;;;;;;;0.28;0.28;;;11.00;99.90;;;;;;5174282;28;20500;-32
2022/02/17 01:59:25;;;;;;;1.17;0.40;;;11.00;99.90;;;;;;5169500;28;20053;-34
2022/02/17 02:02:00;;;;;;;0.20;0.20;;;11.00;99.90;;;;;;5146911;28;20421;-33
2022/02/17 02:04:33;;;;;;;;;;;11.00;99.90;;;;;;5172544;28;20048;-32
2022/02/17 02:07:08;;;;;;;0.40;0.40;;;11.00;99.90;;;;;;5149867;28;20989;-32
2022/02/17 02:09:40;;;;;;;0.30;0.30;;;11.00;99.90;;;;;;5175296;28;20267;-33
2022/02/17 02:12:17;;;;;;;0.88;0.38;;;11.00;99.90;;;;;;5163012;28;20045;-32
2022/02/17 02:14:55;;;;;;;1.95;0.25;;;11.00;99.90;;;;;;5138675;28;20528;-32
2022/02/17 02:17:38;;;;;;;0.20;0.20;;;11.00;99.90;;;;;;5138949;28;20060;-32
2022/02/17 02:20:18;;;;;;;0.40;0.40;;;11.10;99.90;;;;;;5170445;28;20041;-32
2022/02/17 02:22:58;;;;;;;0.30;0.30;;;11.10;99.90;;;;;;5154692;28;20586;-32
2022/02/17 02:25:32;;;;;;;0.60;0.38;;;11.00;99.90;;;;;;5156292;28;20384;-32
2022/02/17 02:28:05;;;;;;;0.32;0.32;;;11.00;99.90;;;;;;5157365;28;20531;-32
2022/02/17 02:30:37;;;;;;;0.30;0.30;;;11.10;99.90;;;;;;5170322;28;20457;-33
2022/02/17 02:33:10;;;;;;;0.38;0.30;;;11.10;99.90;;;;;;5167412;28;20045;-32
2022/02/17 02:35:43;;;;;;;0.38;0.38;;;11.10;99.90;;;;;;5150742;28;20056;-32
2022/02/17 02:38:16;;;;;;;0.50;0.30;;;11.10;99.90;;;;;;5148895;28;20064;-33
2022/02/17 02:40:50;;;;;;;0.30;0.30;;;11.20;99.90;;;;;;5150599;28;20045;-32
2022/02/17 02:43:40;;;;;;;1.05;0.30;;;11.20;99.90;;;;;;5152435;28;20536;-33
2022/02/17 02:46:16;;;;;;;0.30;0.30;;;11.20;99.90;;;;;;5177968;28;20038;-33
2022/02/17 02:48:50;;;;;;;;;;;11.20;99.90;;;;;;5155255;28;20041;-33
2022/02/17 02:51:22;;;;;;;0.30;0.30;;;11.20;99.90;;;;;;5151250;28;20377;-34
2022/02/17 02:53:55;;;;;;;0.20;0.20;;;11.20;99.90;;;;;;5176674;28;20389;-32
2022/02/17 02:56:27;;;;;;;0.30;0.20;;;11.20;99.90;;;;;;5175356;28;20053;-33
2022/02/17 02:59:00;;;;;;;0.35;0.20;;;11.20;99.90;;;;;;5176287;28;20514;-32
2022/02/17 03:01:33;;;;;;;0.20;0.20;;;11.30;99.90;;;;;;5153697;28;20064;-32
2022/02/17 03:04:06;;;;;;;1.42;0.30;;;11.20;99.90;;;;;;5147989;28;20053;-32
2022/02/17 03:06:39;;;;;;;1.65;0.25;;;11.30;99.60;;;;;;5152349;28;20056;-32
2022/02/17 03:09:11;;;;;;;0.30;0.30;;;11.30;99.40;;;;;;5174737;28;21116;-33
2022/02/17 03:11:44;;;;;;;0.60;0.30;;;11.30;99.40;;;;;;5160638;28;20037;-32
2022/02/17 03:14:17;;;;;;;1.23;0.50;;;11.30;98.80;;;;;;5172671;28;20052;-33
2022/02/17 03:16:50;;;;;;;0.40;0.30;;;11.20;98.50;;;;;;5157098;28;20045;-33
2022/02/17 03:19:22;;;;;;;0.28;0.28;;;11.30;98.20;;;;;;5170564;28;20296;-33
2022/02/17 03:21:56;;;;;;;0.20;0.20;;;11.30;97.90;;;;;;5170030;23;20049;-77
2022/02/17 03:24:29;;;;;;;0.93;0.43;;;11.30;97.70;;;;;;5152929;28;20053;-76
2022/02/17 03:27:02;;;;;;;0.30;0.30;;;11.00;96.80;;;;;;5171668;28;20044;-77
2022/02/17 03:29:35;;;;;;;0.37;0.37;;;11.30;97.30;;;;;;5146568;28;20548;-77
2022/02/17 03:32:10;;;;;;;0.80;0.35;;;11.30;97.00;;;;;;5154029;28;20042;-77
2022/02/17 03:34:42;;;;;;;0.52;0.40;;;11.30;96.60;;;;;;5165687;28;20041;-77
2022/02/17 03:37:15;;;;;;;0.22;0.22;;;11.30;96.50;;;;;;5140413;28;20045;-77
2022/02/17 03:39:47;;;;;;;0.75;0.30;;;11.40;96.20;;;;;;5168482;28;20544;-76
2022/02/17 03:42:35;;;;;;;0.57;0.30;;;11.30;96.00;;;;;;5117111;28;20080;-78
2022/02/17 03:45:10;;;;;;;0.30;0.30;;;11.30;95.60;;;;;;5127076;28;20049;-77
2022/02/17 03:47:43;;;;;;;0.32;0.32;;;11.30;95.50;;;;;;5125000;28;20618;-77
2022/02/17 03:50:20;;;;;;;0.20;0.20;;;11.30;95.60;;;;;;5150897;28;20600;-77
2022/02/17 03:53:05;;;;;;;0.10;0.10;;;11.30;95.20;;;;;;5104172;28;20053;-76
2022/02/17 03:55:59;;;;;;;2.00;0.30;;;11.30;95.10;;;;;;5135896;28;20042;-78
2022/02/17 03:59:01;;;;;;;0.30;0.30;;;11.30;94.80;;;;;;5150367;28;20057;-79
2022/02/17 04:01:38;;;;;;;0.20;0.20;;;10.10;93.60;;;;;;5143634;28;20053;-76
2022/02/17 04:04:12;;;;;;;0.22;0.22;;;11.30;94.20;;;;;;5124675;28;20057;-76
2022/02/17 04:06:47;;;;;;;0.20;0.20;;;11.30;94.10;;;;;;5156842;28;20049;-78
2022/02/17 04:09:19;;;;;;;1.05;0.20;;;11.30;94.10;;;;;;5156921;28;20049;-75
2022/02/17 04:11:52;;;;;;;2.30;0.95;;;11.40;93.80;;;;;;5130945;28;20042;-78
2022/02/17 04:14:27;;;;;;;0.40;0.40;;;11.40;94.00;;;;;;5144543;28;20057;-75
2022/02/17 04:17:00;;;;;;;1.65;0.40;;;11.40;94.00;;;;;;5131595;28;20310;-77
2022/02/17 04:19:39;;;;;;;0.47;0.47;;;11.40;93.80;;;;;;5154596;28;20513;-76
2022/02/17 04:22:31;;;;;;;0.20;0.20;;;11.40;93.90;;;;;;5154237;28;20501;-78
2022/02/17 04:25:24;;;;;;;0.45;0.30;;;11.40;93.90;;;;;;5138375;28;20046;-77
2022/02/17 04:27:57;;;;;;;0.38;0.38;;;11.40;94.00;;;;;;5149949;28;20348;-75
2022/02/17 04:30:31;;;;;;;0.40;0.40;;;11.40;94.20;;;;;;5123440;28;20034;-80
2022/02/17 04:33:04;;;;;;;0.45;0.32;;;11.40;94.10;;;;;;5147230;28;20050;-77
2022/02/17 04:35:47;;;;;;;0.30;0.30;;;11.40;94.00;;;;;;5121429;28;20445;-77
2022/02/17 04:38:20;;;;;;;1.63;0.30;;;11.40;94.10;;;;;;5115969;28;20057;-78
2022/02/17 04:43:47;;;;;;;0.40;0.20;;;11.40;94.20;;;;;;5136016;28;20037;-77
2022/02/17 04:46:19;;;;;;;0.45;0.20;;;11.40;94.30;;;;;;5129596;28;20527;-78
2022/02/17 04:48:53;;;;;;;0.73;0.30;;;11.40;94.50;;;;;;5133090;28;20050;-77
2022/02/17 04:51:25;;;;;;;0.40;0.30;;;11.30;94.50;;;;;;5165236;28;20244;-77
2022/02/17 04:53:58;;;;;;;0.22;0.22;;;11.40;94.60;;;;;;5139245;28;20049;-78
2022/02/17 04:56:39;;;;;;;0.40;0.30;;;11.30;94.50;;;;;;5123329;28;20060;-77
2022/02/17 04:59:11;;;;;;;0.30;0.30;;;11.40;94.80;;;;;;5128028;28;20398;-77
2022/02/17 05:01:48;;;;;;;4.10;0.30;;;11.30;94.70;;;;;;5154642;28;22380;-77
2022/02/17 05:05:01;;;;;;;0.45;0.45;;;11.30;94.80;;;;;;5128031;28;20050;-76
2022/02/17 05:07:34;;;;;;;0.43;0.30;;;11.40;95.00;;;;;;5139494;28;20544;-76
2022/02/17 05:10:08;;;;;;;;;;;11.30;95.10;;;;;;5136288;28;20293;-76
2022/02/17 05:12:47;;;;;;;0.20;0.20;;;11.30;94.90;;;;;;5124892;28;19936;-76
2022/02/17 05:15:19;;;;;;;0.40;0.40;;;11.30;95.10;;;;;;5128159;28;20034;-78
2022/02/17 05:17:52;;;;;;;2.00;0.95;;;11.30;95.30;;;;;;5144738;28;20653;-76
2022/02/17 05:20:24;;;;;;;0.57;0.57;;;11.30;95.50;;;;;;5169954;28;20508;-78
2022/02/17 05:23:15;;;;;;;0.20;0.20;;;11.30;95.80;;;;;;5157806;28;21176;-76
2022/02/17 05:26:06;;;;;;;0.50;0.28;;;11.30;95.80;;;;;;5164664;28;20052;-78
2022/02/17 05:28:49;;;;;;;2.38;0.40;;;11.30;95.90;;;;;;5130016;28;20056;-77
2022/02/17 05:31:44;;;;;;;3.10;0.38;;;11.30;96.10;;;;;;5146138;28;20058;-75
2022/02/17 05:34:40;;;;;;;0.30;0.30;;;11.20;96.20;;;;;;5126463;28;20540;-77
2022/02/17 05:37:33;;;;;;;0.55;0.40;;;11.30;96.40;;;;;;5143012;28;20966;-78
2022/02/17 05:40:24;;;;;;;0.40;0.40;;;11.30;96.70;;;;;;5164743;28;20041;-77
2022/02/17 05:42:57;;;;;;;0.47;0.30;;;11.30;97.00;;;;;;5183390;28;20046;-80
2022/02/17 05:45:30;;;;;;;0.30;0.30;;;11.20;97.10;;;;;;5173155;28;20036;-76
2022/02/17 05:48:03;;;;;;;0.30;0.23;;;11.20;97.40;;;;;;5164482;28;20041;-78
2022/02/17 05:50:36;;;;;;;0.40;0.40;;;12.00;97.50;;;;;;5155400;28;20313;-77
2022/02/17 05:53:08;;;;;;;1.30;0.25;;;11.20;97.60;;;;;;5181886;28;20042;-77
2022/02/17 05:55:40;;;;;;;2.65;0.40;;;11.20;97.60;;;;;;5166444;28;20042;-78
2022/02/17 05:58:17;;;;;;;0.60;0.30;;;11.20;97.80;;;;;;5164869;28;20038;-77
2022/02/17 06:00:49;;;;;;;0.40;0.40;;;11.20;97.90;;;;;;5158777;28;20064;-77
2022/02/17 06:03:22;;;;;;;0.63;0.40;;;11.20;98.00;;;;;;5146323;28;20137;-76
2022/02/17 06:05:57;;;;;;;0.40;0.20;;;11.20;98.10;;;;;;5103531;28;20050;-77
2022/02/17 06:08:29;;;;;;;0.30;0.30;;;11.20;98.20;;;;;;5152175;28;20053;-77
2022/02/17 06:11:02;;;;;;;0.43;0.32;;;11.20;98.30;;;;;;5117350;28;20053;-77
2022/02/17 06:13:34;;;;;;;2.03;0.30;;;11.20;98.30;;;;;;5160252;28;20037;-77
2022/02/17 06:16:07;;;;;;;0.53;0.30;;;11.20;98.40;;;;;;5137751;28;20544;-76
2022/02/17 06:18:40;;;;;;;0.35;0.32;;;11.20;98.60;;;;;;5157988;28;20304;-78
2022/02/17 06:21:12;;;;;;;0.40;0.40;;;11.20;98.60;;;;;;5165782;28;20410;-76
2022/02/17 06:23:45;;;;;;;0.47;0.30;;;11.20;98.60;;;;;;5139288;28;20050;-77
2022/02/17 06:26:18;;;;;;;0.40;0.40;;;11.20;98.60;;;;;;5151847;28;20560;-77
2022/02/17 06:28:50;;;;;;;2.03;0.35;;;11.20;98.60;;;;;;5142245;28;20049;-77
2022/02/17 06:31:22;;;;;;;0.30;0.30;;;11.20;98.70;;;;;;5136967;28;20054;-76
2022/02/17 06:33:55;;;;;;;1.95;0.50;;;11.10;98.90;;;;;;5156469;28;20055;-77
2022/02/17 06:36:28;;;;;;;0.30;0.30;;;11.10;98.90;;;;;;5154685;28;20053;-76
2022/02/17 06:39:00;;;;;;;0.40;0.40;;;11.10;98.80;;;;;;5145653;28;20041;-77
2022/02/17 06:41:33;;;;;;;1.42;0.30;;;11.10;99.00;;;;;;5149173;28;20061;-75
2022/02/17 06:44:06;;;;;;;1.30;0.50;;;11.10;98.90;;;;;;5165900;28;20069;-75
2022/02/17 06:46:39;;;;;;;0.93;0.40;;;11.10;98.90;;;;;;5151083;28;20045;-78
2022/02/17 06:49:11;;;;;;;2.05;0.30;;;11.10;98.90;;;;;;5138151;28;20068;-77
2022/02/17 06:51:44;;;;;;;3.28;0.40;;;11.20;99.20;;;;;;5133696;28;20042;-77
2022/02/17 06:54:16;;;;;;;1.40;0.80;;;11.10;99.30;;;;;;5137594;28;20045;-77
2022/02/17 06:56:49;;;;;;;0.63;0.40;;;11.20;99.60;;;;;;5099324;28;20080;-77
2022/02/17 06:59:22;;;;;;;0.40;0.40;;;11.20;99.50;;;;;;5111647;28;20057;-77
2022/02/17 07:01:54;;;;;;;0.47;0.47;;;11.20;99.70;;;;;;5138571;28;20077;-76
2022/02/17 07:04:27;;;;;;;0.40;0.30;;;11.20;99.70;;;;;;5134789;28;20064;-76
2022/02/17 07:07:00;;;;;;;0.50;0.50;;;11.20;99.70;;;;;;5132338;28;20173;-79
2022/02/17 07:09:33;;;;;;;0.30;0.30;;;11.20;99.60;;;;;;5142430;28;20192;-76
2022/02/17 07:12:06;;;;;;;0.32;0.32;;;11.20;99.70;;;;;;5154361;28;20038;-79
2022/02/17 07:14:38;;;;;;;0.55;0.55;;;11.20;99.60;;;;;;5169066;28;20212;-77
2022/02/17 07:17:13;;;;;;;0.30;0.30;;;11.30;99.60;;;;;;5147819;28;20058;-77
2022/02/17 07:19:46;;;;;;;0.57;0.43;;;11.30;99.50;;;;;;5151007;28;20513;-78
2022/02/17 07:22:19;;;;;;;0.90;0.40;;;11.40;99.50;;;;;;5105919;28;20060;-79
2022/02/17 07:24:51;;;;;;;0.47;0.47;;;11.40;99.40;;;;;;5132364;28;20050;-79
2022/02/17 07:27:24;;;;;;;0.30;0.30;;;11.50;99.40;;;;;;5151222;28;20057;-78
2022/02/17 07:29:56;;;;;;;1.38;0.35;;;11.50;99.40;;;;;;5154700;28;20054;-77
2022/02/17 07:32:29;;;;;;;0.35;0.35;;;11.50;99.40;;;;;;5162509;28;20046;-77
2022/02/17 07:35:02;;;;;;;1.00;0.90;;;11.50;99.50;;;;;;5165155;28;22320;-76
2022/02/17 07:37:34;;;;;;;0.40;0.40;;;11.50;99.50;;;;;;5157642;28;20454;-76
2022/02/17 07:40:08;;;;;;;0.38;0.38;;;11.60;99.60;;;;;;5142748;28;20046;-78
2022/02/17 07:42:44;;;;;;;0.30;0.30;;;11.60;99.50;;;;;;5138039;28;20065;-78
2022/02/17 07:45:22;;;;;;;0.45;0.30;;;11.60;99.50;;;;;;5157121;28;20050;-77
2022/02/17 07:47:55;;;;;;;0.55;0.43;;;11.70;99.50;;;;;;5162509;28;20085;-78
2022/02/17 07:50:28;;;;;;;0.50;0.50;;;11.70;99.40;;;;;;5136755;28;20050;-81
2022/02/17 07:53:06;;;;;;;0.40;0.40;;;11.70;99.70;;;;;;5150995;28;20560;-77
2022/02/17 07:55:39;;;;;;;0.93;0.40;;;11.70;99.70;;;;;;5136377;28;20050;-78
2022/02/17 07:58:30;;;;;;;0.40;0.40;;;11.80;99.30;;;;;;5137524;28;20133;-78
2022/02/17 08:01:02;;;;;;;0.20;0.20;;;11.80;99.20;;;;;;5150069;28;20054;-78
2022/02/17 08:03:36;;;;;;;0.30;0.30;;;11.80;98.60;;;;;;5128980;28;20053;-79
2022/02/17 08:06:09;;;;;;;0.60;0.40;;;11.90;98.30;;;;;;5158648;28;20046;-78
2022/02/17 08:08:59;;;;;;;0.52;0.30;;;11.90;98.10;;;;;;5126870;28;20523;-78
2022/02/17 08:11:32;;;;;;;0.30;0.30;;;11.90;97.80;;;;;;5153713;28;20433;-79
2022/02/17 08:14:04;;;;;;;0.40;0.40;;;11.90;97.40;;;;;;5156093;28;20050;-78
2022/02/17 08:16:37;;;;;;;0.50;0.50;;;12.00;97.00;;;;;;5145921;28;20046;-78
2022/02/17 08:19:17;;;;;;;1.88;0.50;;;12.00;96.90;;;;;;5150089;28;20045;-77
2022/02/17 08:21:50;;;;;;;0.38;0.38;;;12.00;97.00;;;;;;5138639;28;20053;-79
2022/02/17 08:24:22;;;;;;;0.40;0.40;;;12.00;98.10;;;;;;5138333;28;20042;-77
2022/02/17 08:26:59;;;;;;;0.30;0.30;;;11.90;98.90;;;;;;5154165;28;20058;-78
2022/02/17 08:29:31;;;;;;;2.80;0.50;;;11.90;99.60;;;;;;5133143;28;20109;-77
2022/02/17 08:32:04;;;;;;;0.40;0.30;;;11.80;99.90;;;;;;5146635;28;20045;-77
2022/02/17 08:34:36;;;;;;;0.40;0.32;;;11.80;99.90;;;;;;5144325;28;21537;-76
2022/02/17 08:37:10;;;;;;;0.80;0.50;;;11.80;99.90;;;;;;5158592;28;20413;-76
2022/02/17 08:39:43;;;;;;;0.68;0.50;;;11.80;99.90;;;;;;5158571;28;20057;-77
2022/02/17 08:42:15;;;;;;;3.60;0.60;;;11.80;99.90;;;;;;5120603;28;21157;-76
2022/02/17 08:44:48;;;;;;;0.47;0.40;;;11.80;99.90;;;;;;5153191;28;20050;-77
2022/02/17 08:47:21;;;;;;;;;;;11.90;99.90;;;;;;5137710;28;20050;-77
2022/02/17 08:49:54;;;;;;;1.45;0.40;;;11.90;99.00;;;;;;5150404;28;19938;-77
2022/02/17 08:52:26;;;;;;;0.47;0.40;;;11.90;99.20;;;;;;5122539;28;20402;-77
2022/02/17 08:54:59;;;;;;;0.40;0.40;;;11.90;99.00;;;;;;5127695;28;20057;-77
2022/02/17 08:57:34;;;;;;;1.10;0.40;;;12.00;98.80;;;;;;5153988;28;20046;-78
2022/02/17 09:00:07;;;;;;;0.40;0.40;;;12.00;98.50;;;;;;5157116;28;20402;-76
2022/02/17 09:02:40;;;;;;;1.30;0.32;;;12.00;98.80;;;;;;5165315;28;21980;-79
2022/02/17 09:05:13;;;;;;;1.10;0.40;;;12.00;99.90;;;;;;5147740;28;20069;-78
2022/02/17 09:07:45;;;;;;;0.43;0.43;;;11.90;99.90;;;;;;5141654;28;20363;-77
2022/02/17 09:10:20;;;;;;;2.47;0.50;;;11.70;99.90;;;;;;5165560;28;20046;-77
2022/02/17 09:12:53;;;;;;;0.68;0.50;;;11.60;99.90;;;;;;5130553;28;20046;-77
2022/02/17 09:15:25;;;;;;;0.93;0.50;;;11.50;99.90;;;;;;5140998;28;20050;-77
2022/02/17 09:17:58;;;;;;;1.33;0.60;;;11.40;99.90;;;;;;5166138;28;20519;-77
2022/02/17 09:20:32;;;;;;;0.60;0.60;;;11.30;99.90;;;;;;5163669;28;20030;-77
2022/02/17 09:23:06;;;;;;;0.45;0.45;;;11.20;99.90;;;;;;5157216;28;20046;-76
2022/02/17 09:25:38;;;;;;;1.10;0.60;;;11.20;99.90;;;;;;5161280;28;20049;-77
2022/02/17 09:28:11;;;;;;;1.10;0.60;;;11.10;99.90;;;;;;5142621;28;20053;-75
2022/02/17 09:30:43;;;;;;;1.85;0.60;;;13.10;99.90;;;;;;5171010;23;20050;-33
2022/02/17 09:33:17;;;;;;;0.80;0.70;;;11.10;99.90;;;;;;5187328;28;20457;-33
2022/02/17 09:35:50;;;;;;;2.63;0.70;;;11.10;99.90;;;;;;5179404;28;20034;-32
2022/02/17 09:38:23;;;;;;;2.00;0.50;;;11.10;99.90;;;;;;5151260;28;20456;-32
2022/02/17 09:40:55;;;;;;;1.40;0.85;;;11.00;99.90;;;;;;5127153;28;20054;-32
2022/02/17 09:43:28;;;;;;;3.78;1.02;;;11.00;99.90;;;;;;5144839;28;20069;-32
2022/02/17 09:46:01;;;;;;;3.67;0.50;;;11.10;99.90;;;;;;5152815;28;20046;-33
2022/02/17 09:48:36;;;;;;;3.43;0.27;;;11.10;99.90;;;;;;5154926;28;20429;-32
2022/02/17 09:51:09;;;;;;;0.70;0.40;;;11.10;99.90;;;;;;5159673;28;20049;-32
2022/02/17 09:53:45;;;;;;;1.25;0.38;;;11.10;99.90;;;;;;5147701;28;20046;-32
2022/02/17 09:56:22;;;;;;;0.30;0.30;;;11.10;99.90;;;;;;5160511;28;20046;-32
2022/02/17 09:58:55;;;;;;;0.30;0.30;;;11.10;99.90;;;;;;5127968;28;20038;-33
2022/02/17 10:01:31;;;;;;;0.38;0.38;;;11.10;99.90;;;;;;5156523;28;20046;-33
2022/02/17 10:04:18;;;;;;;0.55;0.30;;;11.20;99.90;;;;;;5152679;28;20046;-33
2022/02/17 10:07:02;;;;;;;0.38;0.38;;;11.20;99.90;;;;;;5154871;28;20042;-33
2022/02/17 10:09:36;;;;;;;2.78;0.50;;;11.10;99.90;;;;;;5130790;28;21897;-33
2022/02/17 10:12:11;;;;;;;3.72;0.82;;;11.20;99.90;;;;;;5150553;28;20059;-33
2022/02/17 10:14:45;;;;;;;0.65;0.52;;;11.20;99.90;;;;;;5146180;28;20042;-33
2022/02/17 10:17:18;;;;;;;0.60;0.57;;;11.20;99.90;;;;;;5160523;28;20053;-33
2022/02/17 10:19:52;;;;;;;1.65;0.60;;;11.10;99.90;;;;;;5148740;28;20045;-33
2022/02/17 10:22:30;;;;;;;3.83;0.90;;;11.10;99.90;;;;;;5146406;28;20061;-34
2022/02/17 10:25:03;;;;;;;2.38;0.85;;;11.00;99.90;;;;;;5159429;28;20085;-33
2022/02/17 10:27:39;;;;;;;1.17;1.00;;;10.90;99.90;;;;;;5140275;28;20398;-33
2022/02/17 10:30:14;;;;;;;1.50;0.60;;;10.90;99.90;;;;;;5155042;28;20664;-32
2022/02/17 10:32:56;;;;;;;0.50;0.50;;;10.80;99.90;;;;;;5157046;28;20050;-33
2022/02/17 10:35:30;;;;;;;0.38;0.32;;;10.80;99.90;;;;;;5140990;28;20054;-33
2022/02/17 10:38:05;;;;;;;0.73;0.52;;;10.80;99.90;;;;;;5138399;28;20046;-33
2022/02/17 10:40:37;;;;;;;1.33;0.50;;;10.70;99.90;;;;;;5168635;28;20042;-33
2022/02/17 10:43:12;;;;;;;0.68;0.60;;;10.70;99.90;;;;;;5165698;28;20673;-33
2022/02/17 10:45:48;;;;;;;0.40;0.40;;;10.70;99.90;;;;;;5158670;28;20050;-32
2022/02/17 10:48:25;;;;;;;2.42;0.45;;;10.60;99.90;;;;;;5151261;28;20062;-33
2022/02/17 10:51:16;;;;;;;0.52;0.52;;;10.60;99.90;;;;;;5157228;28;20054;-33
2022/02/17 10:53:58;;;;;;;1.38;0.75;;;10.60;99.90;;;;;;5139370;28;20045;-34
2022/02/17 10:56:31;;;;;;;5.57;1.33;;;10.50;99.90;;;;;;5159194;28;20053;-34
2022/02/17 11:00:00;;;;;;;4.15;1.15;;;10.40;99.90;;;;;;5149370;28;20049;-34
2022/02/17 11:02:04;;;;;;;4.68;1.45;;;10.20;99.90;;;;;;5168943;28;20042;-34
2022/02/17 11:04:37;;;;;;;3.00;1.15;;;10.10;99.90;;;;;;5153288;28;20049;-34
2022/02/17 11:07:09;;;;;;;3.75;1.15;;;10.00;99.90;;;;;;5154624;28;20060;-35
2022/02/17 11:09:42;;;;;;;2.07;1.33;;;9.90;99.90;;;;;;5163630;28;20042;-34
2022/02/17 11:12:16;;;;;;;3.25;1.05;;;9.90;99.90;;;;;;5162230;28;20038;-34
2022/02/17 11:14:50;;;;;;;3.30;1.00;;;9.80;99.90;;;;;;5153025;28;20414;-35
2022/02/17 11:17:39;;;;;;;6.97;1.20;;;9.80;99.90;;;;;;5096818;28;10001227;-34
2022/02/17 11:20:20;;;;;;;5.95;1.10;;;9.80;99.90;;;;;;5154893;28;20259;-33
2022/02/17 11:22:53;;;;;;;2.50;1.00;;;9.90;99.90;;;;;;5155894;28;20061;-33
2022/02/17 11:25:34;;;;;;;3.85;1.10;;;9.90;99.90;;;;;;5109873;28;20054;-34
2022/02/17 11:28:12;;;;;;;4.03;1.10;;;9.90;99.90;;;;;;5126955;28;20510;-33
2022/02/17 11:30:59;;;;;;;5.68;1.23;;;10.00;99.90;;;;;;5148713;28;20045;-32
2022/02/17 11:53:50;;;;;;;14.38;2.03;;;10.10;99.90;;;;;;5163882;28;20164;-32
2022/02/17 11:56:22;;;;;;;11.52;2.08;;;10.10;99.90;;;;;;5122541;28;21311;-32
2022/02/17 11:58:56;;;;;;;7.68;1.42;;;10.10;99.90;;;;;;5141116;28;20052;-33
2022/02/17 12:01:34;;;;;;;7.93;1.77;;;10.10;99.90;;;;;;5151487;28;20393;-33
2022/02/17 12:04:14;;;;;;;10.63;2.63;;;10.10;99.90;;;;;;5154635;28;22267;-33
2022/02/17 12:07:07;;;;;;;9.80;2.03;;;10.10;99.90;;;;;;5148874;28;20437;-36
2022/02/17 12:09:44;;;;;;;7.20;1.70;;;10.10;99.90;;;;;;5157570;28;20449;-32
2022/02/17 12:12:36;;;;;;;13.73;2.35;;;10.10;99.90;;;;;;5155545;28;20042;-32
2022/02/17 12:15:12;;;;;;;9.13;2.10;;;10.20;99.90;;;;;;5136043;28;20951;-33
2022/02/17 12:17:46;;;;;;;11.48;2.72;;;10.20;99.90;;;;;;5130375;28;20525;-33
2022/02/17 12:20:21;;;;;;;11.57;2.65;;;10.30;99.90;;;;;;5130505;28;20042;-33
2022/02/17 12:22:56;;;;;;;10.48;2.53;;;10.30;99.90;;;;;;5126498;28;20053;-33
2022/02/17 12:25:32;;;;;;;12.40;2.45;;;10.40;99.90;;;;;;5146931;28;20422;-32
2022/02/17 12:28:09;;;;;;;15.38;2.53;;;10.40;99.90;;;;;;5141573;28;20053;-33
2022/02/17 12:30:48;;;;;;;17.42;2.55;;;10.40;99.90;;;;;;5147419;28;20042;-33
2022/02/17 12:33:26;;;;;;;11.68;1.95;;;10.40;99.90;;;;;;5134713;28;20054;-34
2022/02/17 12:36:14;;;;;;;16.85;2.97;;;10.50;99.90;;;;;;5145159;28;20038;-33
2022/02/17 12:38:46;;;;;;;11.07;2.03;;;10.50;99.90;;;;;;5124447;28;20394;-33
2022/02/17 12:41:19;;;;;;;11.80;2.72;;;10.60;99.90;;;;;;5135952;28;20058;-34
2022/02/17 12:43:53;;;;;;;12.18;2.28;;;10.70;99.90;;;;;;5146310;28;20054;-33
2022/02/17 12:46:27;;;;;;;5.10;1.90;;;10.70;99.90;;;;;;5142824;28;20612;-33
2022/02/17 12:49:09;;;;;;;9.82;2.25;;;10.80;99.90;;;;;;5146327;28;20385;-34
2022/02/17 12:51:41;;;;;;;8.52;2.33;;;10.80;99.90;;;;;;5129919;28;20046;-34
2022/02/17 12:54:15;;;;;;;8.20;2.28;;;10.80;99.90;;;;;;5144113;28;20108;-33
2022/02/17 12:56:48;;;;;;;8.40;2.70;;;10.80;99.90;;;;;;5122515;28;20046;-33
2022/02/17 12:59:21;;;;;;;12.20;2.83;;;10.70;99.90;;;;;;5124572;28;20058;-34
2022/02/17 13:01:58;;;;;;;12.30;2.25;;;10.70;98.70;;;;;;5121513;28;20781;-33
2022/02/17 13:04:31;;;;;;;9.68;2.00;;;10.80;98.60;;;;;;5135669;28;20189;-33
2022/02/17 13:07:09;;;;;;;10.40;1.92;;;10.80;98.70;;;;;;5142205;28;20062;-34
2022/02/17 13:09:41;;;;;;;9.85;2.50;;;10.80;97.20;;;;;;5143305;28;20513;-33
2022/02/17 13:12:14;;;;;;;12.60;2.33;;;10.80;97.60;;;;;;5134150;28;20058;-34
2022/02/17 13:14:48;;;;;;;9.48;1.85;;;10.90;95.70;;;;;;5137290;28;20053;-34
2022/02/17 13:17:26;;;;;;;8.82;2.20;;;10.90;95.40;;;;;;5133414;28;20371;-34
2022/02/17 13:20:25;;;;;;;10.88;2.10;;;11.00;94.50;;;;;;5137737;28;20042;-33
2022/02/17 13:22:59;;;;;;;11.10;2.63;;;11.10;95.10;;;;;;5124743;28;20065;-34
2022/02/17 13:25:35;;;;;;;13.85;2.20;;;11.10;94.60;;;;;;5142235;28;20572;-33
2022/02/17 13:28:12;;;;;;;9.13;1.50;;;11.20;95.10;;;;;;5141366;28;20050;-33
2022/02/17 13:30:44;;;;;;;8.07;1.50;;;11.20;94.00;;;;;;5144729;28;20565;-34
2022/02/17 13:33:27;;;;;;;9.60;2.20;;;11.20;93.00;;;;;;5140591;28;20715;-33
2022/02/17 13:36:02;;;;;;;7.00;1.88;;;11.20;93.10;;;;;;5147222;28;20046;-33
2022/02/17 13:38:34;;;;;;;7.80;2.10;;;11.20;92.10;;;;;;5120303;28;20635;-34
2022/02/17 13:41:11;;;;;;;11.32;2.03;;;11.20;90.80;;;;;;5145612;28;20040;-33
2022/02/17 13:43:46;;;;;;;8.63;1.70;;;11.20;90.20;;;;;;5144723;28;20053;-34
2022/02/17 13:46:19;;;;;;;9.15;1.83;;;11.30;90.60;;;;;;5148322;28;20497;-34
2022/02/17 13:48:52;;;;;;;7.03;1.90;;;11.30;90.60;;;;;;5151490;28;20056;-33
2022/02/17 13:51:26;;;;;;;9.07;2.05;;;11.30;91.20;;;;;;5141698;28;20089;-34
2022/02/17 13:53:58;;;;;;;5.13;1.70;;;11.40;90.60;;;;;;5145300;28;20049;-33